sensor_id;sensor_type;location;lat;lon;timestamp;P1;durP1;ratioP1;P2;durP2;ratioP2
36501;SDS011;25393;46.108;3.390;2022-08-19T00:02:05;6.07;;;5.50;;
36501;SDS011;25393;46.108;3.390;2022-08-19T00:04:33;6.32;;;5.82;;
36501;SDS011;25393;46.108;3.390;2022-08-19T00:07:06;6.80;;;6.13;;
36501;SDS011;25393;46.108;3.390;2022-08-19T00:09:33;6.35;;;5.95;;
36501;SDS011;25393;46.108;3.390;2022-08-19T00:12:00;6.50;;;6.00;;
36501;SDS011;25393;46.108;3.390;2022-08-19T00:14:28;6.53;;;6.07;;
36501;SDS011;25393;46.108;3.390;2022-08-19T00:16:58;6.57;;;5.75;;
36501;SDS011;25393;46.108;3.390;2022-08-19T00:19:26;14.80;;;6.00;;
36501;SDS011;25393;46.108;3.390;2022-08-19T00:21:56;6.35;;;5.68;;
36501;SDS011;25393;46.108;3.390;2022-08-19T00:24:26;6.55;;;5.90;;
36501;SDS011;25393;46.108;3.390;2022-08-19T00:26:55;6.47;;;5.97;;
36501;SDS011;25393;46.108;3.390;2022-08-19T00:29:43;7.45;;;6.03;;
36501;SDS011;25393;46.108;3.390;2022-08-19T00:32:10;6.72;;;5.70;;
36501;SDS011;25393;46.108;3.390;2022-08-19T00:34:39;8.32;;;5.70;;
36501;SDS011;25393;46.108;3.390;2022-08-19T00:37:05;5.82;;;5.43;;
36501;SDS011;25393;46.108;3.390;2022-08-19T00:39:33;6.20;;;5.60;;
36501;SDS011;25393;46.108;3.390;2022-08-19T00:42:00;9.82;;;5.80;;
36501;SDS011;25393;46.108;3.390;2022-08-19T00:44:28;6.70;;;6.00;;
36501;SDS011;25393;46.108;3.390;2022-08-19T00:46:57;6.93;;;5.55;;
36501;SDS011;25393;46.108;3.390;2022-08-19T00:49:35;7.22;;;5.70;;
36501;SDS011;25393;46.108;3.390;2022-08-19T00:52:24;6.03;;;5.53;;
36501;SDS011;25393;46.108;3.390;2022-08-19T00:54:56;6.15;;;5.35;;
36501;SDS011;25393;46.108;3.390;2022-08-19T00:57:25;6.32;;;5.70;;
36501;SDS011;25393;46.108;3.390;2022-08-19T00:59:56;6.55;;;5.93;;
36501;SDS011;25393;46.108;3.390;2022-08-19T01:02:29;7.65;;;6.75;;
36501;SDS011;25393;46.108;3.390;2022-08-19T01:04:57;9.57;;;6.70;;
36501;SDS011;25393;46.108;3.390;2022-08-19T01:07:25;9.48;;;7.72;;
36501;SDS011;25393;46.108;3.390;2022-08-19T01:09:52;9.27;;;8.38;;
36501;SDS011;25393;46.108;3.390;2022-08-19T01:12:21;9.10;;;8.23;;
36501;SDS011;25393;46.108;3.390;2022-08-19T01:14:49;11.27;;;9.02;;
36501;SDS011;25393;46.108;3.390;2022-08-19T01:17:17;10.63;;;9.52;;
36501;SDS011;25393;46.108;3.390;2022-08-19T01:19:45;10.30;;;9.23;;
36501;SDS011;25393;46.108;3.390;2022-08-19T01:22:19;9.15;;;8.45;;
36501;SDS011;25393;46.108;3.390;2022-08-19T01:24:58;12.90;;;9.25;;
36501;SDS011;25393;46.108;3.390;2022-08-19T01:27:25;10.60;;;9.70;;
36501;SDS011;25393;46.108;3.390;2022-08-19T01:30:00;10.43;;;8.90;;
36501;SDS011;25393;46.108;3.390;2022-08-19T01:32:27;10.43;;;9.52;;
36501;SDS011;25393;46.108;3.390;2022-08-19T01:34:59;9.20;;;8.40;;
36501;SDS011;25393;46.108;3.390;2022-08-19T01:37:28;11.90;;;9.00;;
36501;SDS011;25393;46.108;3.390;2022-08-19T01:39:59;11.90;;;9.25;;
36501;SDS011;25393;46.108;3.390;2022-08-19T01:42:29;9.45;;;8.60;;
36501;SDS011;25393;46.108;3.390;2022-08-19T01:44:58;14.48;;;9.27;;
36501;SDS011;25393;46.108;3.390;2022-08-19T01:47:25;8.85;;;7.80;;
36501;SDS011;25393;46.108;3.390;2022-08-19T01:49:55;9.18;;;8.27;;
36501;SDS011;25393;46.108;3.390;2022-08-19T01:52:21;9.68;;;8.52;;
36501;SDS011;25393;46.108;3.390;2022-08-19T01:54:48;8.73;;;7.82;;
36501;SDS011;25393;46.108;3.390;2022-08-19T01:57:14;15.90;;;8.52;;
36501;SDS011;25393;46.108;3.390;2022-08-19T01:59:42;9.05;;;8.25;;
36501;SDS011;25393;46.108;3.390;2022-08-19T02:02:11;8.00;;;7.40;;
36501;SDS011;25393;46.108;3.390;2022-08-19T02:04:38;10.65;;;7.30;;
36501;SDS011;25393;46.108;3.390;2022-08-19T02:07:05;9.52;;;6.95;;
36501;SDS011;25393;46.108;3.390;2022-08-19T02:09:33;10.43;;;7.07;;
36501;SDS011;25393;46.108;3.390;2022-08-19T02:12:00;10.50;;;9.60;;
36501;SDS011;25393;46.108;3.390;2022-08-19T02:14:26;7.63;;;6.97;;
36501;SDS011;25393;46.108;3.390;2022-08-19T02:16:55;8.95;;;7.32;;
36501;SDS011;25393;46.108;3.390;2022-08-19T02:19:22;11.30;;;6.38;;
36501;SDS011;25393;46.108;3.390;2022-08-19T02:21:49;9.50;;;8.68;;
36501;SDS011;25393;46.108;3.390;2022-08-19T02:24:15;10.73;;;9.85;;
36501;SDS011;25393;46.108;3.390;2022-08-19T02:26:42;5.43;;;3.40;;
36501;SDS011;25393;46.108;3.390;2022-08-19T02:29:09;4.00;;;3.60;;
36501;SDS011;25393;46.108;3.390;2022-08-19T02:31:35;9.48;;;4.50;;
36501;SDS011;25393;46.108;3.390;2022-08-19T02:34:02;8.02;;;3.60;;
36501;SDS011;25393;46.108;3.390;2022-08-19T02:36:29;5.50;;;3.92;;
36501;SDS011;25393;46.108;3.390;2022-08-19T02:38:59;24.60;;;5.97;;
36501;SDS011;25393;46.108;3.390;2022-08-19T02:41:29;6.20;;;5.68;;
36501;SDS011;25393;46.108;3.390;2022-08-19T02:44:00;9.52;;;7.18;;
36501;SDS011;25393;46.108;3.390;2022-08-19T02:46:50;7.38;;;6.45;;
36501;SDS011;25393;46.108;3.390;2022-08-19T02:49:18;10.90;;;6.28;;
36501;SDS011;25393;46.108;3.390;2022-08-19T02:51:45;7.55;;;6.53;;
36501;SDS011;25393;46.108;3.390;2022-08-19T02:54:12;9.95;;;6.28;;
36501;SDS011;25393;46.108;3.390;2022-08-19T02:56:40;6.78;;;6.10;;
36501;SDS011;25393;46.108;3.390;2022-08-19T02:59:09;7.55;;;7.05;;
36501;SDS011;25393;46.108;3.390;2022-08-19T03:01:37;6.05;;;5.47;;
36501;SDS011;25393;46.108;3.390;2022-08-19T03:04:09;6.80;;;6.10;;
36501;SDS011;25393;46.108;3.390;2022-08-19T03:06:38;9.10;;;5.95;;
36501;SDS011;25393;46.108;3.390;2022-08-19T03:09:06;6.72;;;6.13;;
36501;SDS011;25393;46.108;3.390;2022-08-19T03:11:33;8.93;;;6.35;;
36501;SDS011;25393;46.108;3.390;2022-08-19T03:14:03;8.48;;;6.47;;
36501;SDS011;25393;46.108;3.390;2022-08-19T03:16:40;12.38;;;6.82;;
36501;SDS011;25393;46.108;3.390;2022-08-19T03:19:15;6.85;;;6.35;;
36501;SDS011;25393;46.108;3.390;2022-08-19T03:21:44;10.23;;;6.55;;
36501;SDS011;25393;46.108;3.390;2022-08-19T03:24:12;7.07;;;6.47;;
36501;SDS011;25393;46.108;3.390;2022-08-19T03:26:40;6.90;;;6.20;;
36501;SDS011;25393;46.108;3.390;2022-08-19T03:29:11;6.90;;;6.40;;
36501;SDS011;25393;46.108;3.390;2022-08-19T03:31:38;11.10;;;7.43;;
36501;SDS011;25393;46.108;3.390;2022-08-19T03:34:22;10.93;;;7.60;;
36501;SDS011;25393;46.108;3.390;2022-08-19T03:36:53;10.32;;;6.85;;
36501;SDS011;25393;46.108;3.390;2022-08-19T03:39:21;8.63;;;7.97;;
36501;SDS011;25393;46.108;3.390;2022-08-19T03:41:50;7.53;;;6.82;;
36501;SDS011;25393;46.108;3.390;2022-08-19T03:44:38;7.53;;;6.85;;
36501;SDS011;25393;46.108;3.390;2022-08-19T03:47:05;9.63;;;7.03;;
36501;SDS011;25393;46.108;3.390;2022-08-19T03:49:32;13.68;;;7.70;;
36501;SDS011;25393;46.108;3.390;2022-08-19T03:52:02;10.00;;;7.55;;
36501;SDS011;25393;46.108;3.390;2022-08-19T03:54:31;7.40;;;6.70;;
36501;SDS011;25393;46.108;3.390;2022-08-19T03:56:58;9.52;;;8.02;;
36501;SDS011;25393;46.108;3.390;2022-08-19T03:59:27;7.88;;;7.28;;
36501;SDS011;25393;46.108;3.390;2022-08-19T04:01:56;10.05;;;7.75;;
36501;SDS011;25393;46.108;3.390;2022-08-19T04:04:25;9.32;;;8.43;;
36501;SDS011;25393;46.108;3.390;2022-08-19T04:06:54;9.13;;;8.27;;
36501;SDS011;25393;46.108;3.390;2022-08-19T04:09:22;8.38;;;7.65;;
36501;SDS011;25393;46.108;3.390;2022-08-19T04:11:49;13.55;;;7.63;;
36501;SDS011;25393;46.108;3.390;2022-08-19T04:14:21;7.35;;;6.65;;
36501;SDS011;25393;46.108;3.390;2022-08-19T04:16:50;8.50;;;7.68;;
36501;SDS011;25393;46.108;3.390;2022-08-19T04:19:18;12.10;;;7.65;;
36501;SDS011;25393;46.108;3.390;2022-08-19T04:21:46;8.30;;;7.60;;
36501;SDS011;25393;46.108;3.390;2022-08-19T04:24:15;10.18;;;7.60;;
36501;SDS011;25393;46.108;3.390;2022-08-19T04:26:43;8.60;;;7.75;;
36501;SDS011;25393;46.108;3.390;2022-08-19T04:29:14;9.35;;;8.50;;
36501;SDS011;25393;46.108;3.390;2022-08-19T04:31:45;8.88;;;7.97;;
36501;SDS011;25393;46.108;3.390;2022-08-19T04:34:13;8.57;;;7.68;;
36501;SDS011;25393;46.108;3.390;2022-08-19T04:36:42;13.70;;;7.75;;
36501;SDS011;25393;46.108;3.390;2022-08-19T04:39:15;8.52;;;7.72;;
36501;SDS011;25393;46.108;3.390;2022-08-19T04:41:43;8.15;;;7.35;;
36501;SDS011;25393;46.108;3.390;2022-08-19T04:44:33;7.72;;;6.97;;
36501;SDS011;25393;46.108;3.390;2022-08-19T04:47:10;9.88;;;7.60;;
36501;SDS011;25393;46.108;3.390;2022-08-19T04:49:36;11.05;;;8.30;;
36501;SDS011;25393;46.108;3.390;2022-08-19T04:52:06;9.23;;;7.88;;
36501;SDS011;25393;46.108;3.390;2022-08-19T04:54:34;16.92;;;8.95;;
36501;SDS011;25393;46.108;3.390;2022-08-19T04:57:05;13.82;;;8.45;;
36501;SDS011;25393;46.108;3.390;2022-08-19T04:59:40;18.17;;;8.73;;
36501;SDS011;25393;46.108;3.390;2022-08-19T05:02:20;8.55;;;7.75;;
36501;SDS011;25393;46.108;3.390;2022-08-19T05:04:59;10.10;;;8.55;;
36501;SDS011;25393;46.108;3.390;2022-08-19T05:07:27;9.35;;;8.38;;
36501;SDS011;25393;46.108;3.390;2022-08-19T05:09:54;9.43;;;8.35;;
36501;SDS011;25393;46.108;3.390;2022-08-19T05:12:24;11.20;;;8.15;;
36501;SDS011;25393;46.108;3.390;2022-08-19T05:14:54;10.48;;;9.02;;
36501;SDS011;25393;46.108;3.390;2022-08-19T05:17:34;11.00;;;8.73;;
36501;SDS011;25393;46.108;3.390;2022-08-19T05:20:05;11.93;;;8.85;;
36501;SDS011;25393;46.108;3.390;2022-08-19T05:22:54;12.32;;;8.10;;
36501;SDS011;25393;46.108;3.390;2022-08-19T05:25:21;10.98;;;8.80;;
36501;SDS011;25393;46.108;3.390;2022-08-19T05:27:48;9.32;;;8.43;;
36501;SDS011;25393;46.108;3.390;2022-08-19T05:30:16;10.70;;;7.60;;
36501;SDS011;25393;46.108;3.390;2022-08-19T05:32:45;9.23;;;8.32;;
36501;SDS011;25393;46.108;3.390;2022-08-19T05:35:12;8.55;;;7.75;;
36501;SDS011;25393;46.108;3.390;2022-08-19T05:37:39;11.10;;;7.95;;
36501;SDS011;25393;46.108;3.390;2022-08-19T05:40:10;15.75;;;9.00;;
36501;SDS011;25393;46.108;3.390;2022-08-19T05:42:37;11.93;;;5.22;;
36501;SDS011;25393;46.108;3.390;2022-08-19T05:45:05;9.43;;;5.95;;
36501;SDS011;25393;46.108;3.390;2022-08-19T05:47:33;13.63;;;8.68;;
36501;SDS011;25393;46.108;3.390;2022-08-19T05:50:10;6.78;;;5.13;;
36501;SDS011;25393;46.108;3.390;2022-08-19T05:52:39;9.02;;;5.15;;
36501;SDS011;25393;46.108;3.390;2022-08-19T05:55:18;7.40;;;5.47;;
36501;SDS011;25393;46.108;3.390;2022-08-19T05:57:48;10.15;;;4.85;;
36501;SDS011;25393;46.108;3.390;2022-08-19T06:00:15;13.85;;;11.02;;
36501;SDS011;25393;46.108;3.390;2022-08-19T06:02:49;12.75;;;6.85;;
36501;SDS011;25393;46.108;3.390;2022-08-19T06:05:18;9.48;;;6.07;;
36501;SDS011;25393;46.108;3.390;2022-08-19T06:07:46;10.82;;;5.80;;
36501;SDS011;25393;46.108;3.390;2022-08-19T06:10:13;20.38;;;17.95;;
36501;SDS011;25393;46.108;3.390;2022-08-19T06:12:40;9.52;;;8.07;;
36501;SDS011;25393;46.108;3.390;2022-08-19T06:15:11;10.57;;;7.35;;
36501;SDS011;25393;46.108;3.390;2022-08-19T06:17:40;13.88;;;8.80;;
36501;SDS011;25393;46.108;3.390;2022-08-19T06:20:11;12.15;;;8.23;;
36501;SDS011;25393;46.108;3.390;2022-08-19T06:22:41;14.13;;;8.05;;
36501;SDS011;25393;46.108;3.390;2022-08-19T06:25:10;12.00;;;7.95;;
36501;SDS011;25393;46.108;3.390;2022-08-19T06:27:40;10.88;;;8.15;;
36501;SDS011;25393;46.108;3.390;2022-08-19T06:30:27;9.43;;;8.45;;
36501;SDS011;25393;46.108;3.390;2022-08-19T06:32:54;10.90;;;7.95;;
36501;SDS011;25393;46.108;3.390;2022-08-19T06:35:21;13.05;;;9.13;;
36501;SDS011;25393;46.108;3.390;2022-08-19T06:37:48;9.40;;;8.48;;
36501;SDS011;25393;46.108;3.390;2022-08-19T06:40:14;13.27;;;8.93;;
36501;SDS011;25393;46.108;3.390;2022-08-19T06:42:41;12.32;;;8.15;;
36501;SDS011;25393;46.108;3.390;2022-08-19T06:45:19;9.27;;;7.90;;
36501;SDS011;25393;46.108;3.390;2022-08-19T06:47:50;10.95;;;8.23;;
36501;SDS011;25393;46.108;3.390;2022-08-19T06:50:17;13.88;;;8.60;;
36501;SDS011;25393;46.108;3.390;2022-08-19T06:52:45;13.60;;;8.88;;
36501;SDS011;25393;46.108;3.390;2022-08-19T06:55:16;12.23;;;8.30;;
36501;SDS011;25393;46.108;3.390;2022-08-19T06:57:44;18.08;;;9.02;;
36501;SDS011;25393;46.108;3.390;2022-08-19T07:00:12;11.95;;;9.15;;
36501;SDS011;25393;46.108;3.390;2022-08-19T07:02:43;10.88;;;9.45;;
36501;SDS011;25393;46.108;3.390;2022-08-19T07:05:20;13.20;;;9.82;;
36501;SDS011;25393;46.108;3.390;2022-08-19T07:07:48;10.10;;;9.02;;
36501;SDS011;25393;46.108;3.390;2022-08-19T07:10:16;10.70;;;8.68;;
36501;SDS011;25393;46.108;3.390;2022-08-19T07:12:43;9.52;;;8.55;;
36501;SDS011;25393;46.108;3.390;2022-08-19T07:15:10;10.18;;;9.15;;
36501;SDS011;25393;46.108;3.390;2022-08-19T07:17:37;14.23;;;9.77;;
36501;SDS011;25393;46.108;3.390;2022-08-19T07:20:09;13.40;;;9.52;;
36501;SDS011;25393;46.108;3.390;2022-08-19T07:22:37;13.93;;;10.43;;
36501;SDS011;25393;46.108;3.390;2022-08-19T07:25:06;18.55;;;10.30;;
36501;SDS011;25393;46.108;3.390;2022-08-19T07:27:35;12.85;;;10.30;;
36501;SDS011;25393;46.108;3.390;2022-08-19T07:30:06;17.38;;;10.50;;
36501;SDS011;25393;46.108;3.390;2022-08-19T07:32:37;15.07;;;9.50;;
36501;SDS011;25393;46.108;3.390;2022-08-19T07:35:08;17.40;;;10.10;;
36501;SDS011;25393;46.108;3.390;2022-08-19T07:37:36;14.48;;;9.65;;
36501;SDS011;25393;46.108;3.390;2022-08-19T07:40:06;13.45;;;10.90;;
36501;SDS011;25393;46.108;3.390;2022-08-19T07:42:35;14.45;;;10.80;;
36501;SDS011;25393;46.108;3.390;2022-08-19T07:45:02;16.63;;;10.07;;
36501;SDS011;25393;46.108;3.390;2022-08-19T07:47:29;14.45;;;10.38;;
36501;SDS011;25393;46.108;3.390;2022-08-19T07:50:15;12.43;;;10.05;;
36501;SDS011;25393;46.108;3.390;2022-08-19T07:52:44;11.93;;;9.60;;
36501;SDS011;25393;46.108;3.390;2022-08-19T07:55:15;15.00;;;10.65;;
36501;SDS011;25393;46.108;3.390;2022-08-19T07:58:06;16.17;;;9.95;;
36501;SDS011;25393;46.108;3.390;2022-08-19T08:00:36;14.35;;;11.20;;
36501;SDS011;25393;46.108;3.390;2022-08-19T08:03:05;15.45;;;11.02;;
36501;SDS011;25393;46.108;3.390;2022-08-19T08:05:32;16.35;;;11.20;;
36501;SDS011;25393;46.108;3.390;2022-08-19T08:08:17;18.65;;;11.30;;
36501;SDS011;25393;46.108;3.390;2022-08-19T08:10:53;12.45;;;10.20;;
36501;SDS011;25393;46.108;3.390;2022-08-19T08:13:23;12.15;;;9.77;;
36501;SDS011;25393;46.108;3.390;2022-08-19T08:15:51;15.82;;;10.40;;
36501;SDS011;25393;46.108;3.390;2022-08-19T08:18:21;16.85;;;11.32;;
36501;SDS011;25393;46.108;3.390;2022-08-19T08:20:53;16.75;;;10.65;;
36501;SDS011;25393;46.108;3.390;2022-08-19T08:23:20;15.48;;;11.15;;
36501;SDS011;25393;46.108;3.390;2022-08-19T08:25:53;12.43;;;10.73;;
36501;SDS011;25393;46.108;3.390;2022-08-19T08:28:23;14.02;;;11.32;;
36501;SDS011;25393;46.108;3.390;2022-08-19T08:30:54;16.80;;;11.18;;
36501;SDS011;25393;46.108;3.390;2022-08-19T08:33:23;11.32;;;10.13;;
36501;SDS011;25393;46.108;3.390;2022-08-19T08:36:06;12.73;;;10.07;;
36501;SDS011;25393;46.108;3.390;2022-08-19T08:38:34;12.63;;;10.05;;
36501;SDS011;25393;46.108;3.390;2022-08-19T08:43:40;13.38;;;10.25;;
36501;SDS011;25393;46.108;3.390;2022-08-19T08:46:12;12.63;;;10.43;;
36501;SDS011;25393;46.108;3.390;2022-08-19T08:49:16;15.48;;;9.65;;
36501;SDS011;25393;46.108;3.390;2022-08-19T08:51:48;13.60;;;9.98;;
36501;SDS011;25393;46.108;3.390;2022-08-19T08:54:25;16.40;;;10.88;;
36501;SDS011;25393;46.108;3.390;2022-08-19T08:57:00;14.13;;;10.32;;
36501;SDS011;25393;46.108;3.390;2022-08-19T08:59:30;12.88;;;9.45;;
36501;SDS011;25393;46.108;3.390;2022-08-19T09:02:01;11.48;;;8.90;;
36501;SDS011;25393;46.108;3.390;2022-08-19T09:04:28;12.38;;;9.10;;
36501;SDS011;25393;46.108;3.390;2022-08-19T09:10:09;14.52;;;9.02;;
36501;SDS011;25393;46.108;3.390;2022-08-19T09:15:36;12.50;;;8.48;;
36501;SDS011;25393;46.108;3.390;2022-08-19T09:18:12;14.65;;;10.32;;
36501;SDS011;25393;46.108;3.390;2022-08-19T09:20:44;12.90;;;9.45;;
36501;SDS011;25393;46.108;3.390;2022-08-19T09:23:13;13.63;;;9.18;;
36501;SDS011;25393;46.108;3.390;2022-08-19T09:25:41;12.30;;;8.60;;
36501;SDS011;25393;46.108;3.390;2022-08-19T09:28:08;16.92;;;9.45;;
36501;SDS011;25393;46.108;3.390;2022-08-19T09:30:48;14.02;;;8.18;;
36501;SDS011;25393;46.108;3.390;2022-08-19T09:33:18;12.20;;;9.88;;
36501;SDS011;25393;46.108;3.390;2022-08-19T09:35:45;14.98;;;8.88;;
36501;SDS011;25393;46.108;3.390;2022-08-19T09:38:19;12.68;;;8.52;;
36501;SDS011;25393;46.108;3.390;2022-08-19T09:40:46;14.95;;;9.80;;
36501;SDS011;25393;46.108;3.390;2022-08-19T09:43:13;12.95;;;8.57;;
36501;SDS011;25393;46.108;3.390;2022-08-19T09:45:40;11.63;;;8.25;;
36501;SDS011;25393;46.108;3.390;2022-08-19T09:48:06;9.88;;;8.80;;
36501;SDS011;25393;46.108;3.390;2022-08-19T09:50:36;11.63;;;7.43;;
36501;SDS011;25393;46.108;3.390;2022-08-19T09:53:17;13.57;;;7.65;;
36501;SDS011;25393;46.108;3.390;2022-08-19T09:55:44;15.27;;;8.80;;
36501;SDS011;25393;46.108;3.390;2022-08-19T09:58:11;12.63;;;7.95;;
36501;SDS011;25393;46.108;3.390;2022-08-19T10:00:39;13.57;;;8.20;;
36501;SDS011;25393;46.108;3.390;2022-08-19T10:03:05;6.57;;;5.80;;
36501;SDS011;25393;46.108;3.390;2022-08-19T10:05:33;5.55;;;4.85;;
36501;SDS011;25393;46.108;3.390;2022-08-19T10:08:31;7.45;;;6.05;;
36501;SDS011;25393;46.108;3.390;2022-08-19T10:11:00;8.85;;;5.25;;
36501;SDS011;25393;46.108;3.390;2022-08-19T10:13:48;6.22;;;5.60;;
36501;SDS011;25393;46.108;3.390;2022-08-19T10:16:17;6.30;;;5.22;;
36501;SDS011;25393;46.108;3.390;2022-08-19T10:18:46;6.95;;;5.50;;
36501;SDS011;25393;46.108;3.390;2022-08-19T10:21:19;7.20;;;5.35;;
36501;SDS011;25393;46.108;3.390;2022-08-19T10:23:51;6.13;;;5.15;;
36501;SDS011;25393;46.108;3.390;2022-08-19T10:26:22;5.82;;;5.28;;
36501;SDS011;25393;46.108;3.390;2022-08-19T10:28:56;6.13;;;4.82;;
36501;SDS011;25393;46.108;3.390;2022-08-19T10:31:26;8.25;;;5.70;;
36501;SDS011;25393;46.108;3.390;2022-08-19T10:34:15;5.50;;;5.00;;
36501;SDS011;25393;46.108;3.390;2022-08-19T10:36:52;5.15;;;4.40;;
36501;SDS011;25393;46.108;3.390;2022-08-19T10:39:25;9.18;;;5.22;;
36501;SDS011;25393;46.108;3.390;2022-08-19T10:41:56;5.72;;;5.07;;
36501;SDS011;25393;46.108;3.390;2022-08-19T10:44:23;5.18;;;4.38;;
36501;SDS011;25393;46.108;3.390;2022-08-19T10:46:58;5.35;;;4.85;;
36501;SDS011;25393;46.108;3.390;2022-08-19T10:49:25;6.28;;;5.57;;
36501;SDS011;25393;46.108;3.390;2022-08-19T10:51:53;6.93;;;5.05;;
36501;SDS011;25393;46.108;3.390;2022-08-19T10:54:44;7.75;;;5.22;;
36501;SDS011;25393;46.108;3.390;2022-08-19T10:57:33;10.18;;;5.85;;
36501;SDS011;25393;46.108;3.390;2022-08-19T11:00:20;11.98;;;6.68;;
36501;SDS011;25393;46.108;3.390;2022-08-19T11:02:49;8.25;;;6.45;;
36501;SDS011;25393;46.108;3.390;2022-08-19T11:05:16;8.38;;;7.38;;
36501;SDS011;25393;46.108;3.390;2022-08-19T11:07:44;7.70;;;6.88;;
36501;SDS011;25393;46.108;3.390;2022-08-19T11:10:13;8.77;;;6.40;;
36501;SDS011;25393;46.108;3.390;2022-08-19T11:12:46;16.58;;;7.55;;
36501;SDS011;25393;46.108;3.390;2022-08-19T11:15:13;7.63;;;6.78;;
36501;SDS011;25393;46.108;3.390;2022-08-19T11:17:40;7.47;;;6.50;;
36501;SDS011;25393;46.108;3.390;2022-08-19T11:20:13;8.77;;;6.78;;
36501;SDS011;25393;46.108;3.390;2022-08-19T11:22:40;6.85;;;6.20;;
36501;SDS011;25393;46.108;3.390;2022-08-19T11:25:09;7.68;;;5.80;;
36501;SDS011;25393;46.108;3.390;2022-08-19T11:27:40;9.80;;;4.45;;
36501;SDS011;25393;46.108;3.390;2022-08-19T11:30:10;6.72;;;4.13;;
36501;SDS011;25393;46.108;3.390;2022-08-19T11:32:39;4.20;;;3.80;;
36501;SDS011;25393;46.108;3.390;2022-08-19T11:35:14;3.90;;;3.22;;
36501;SDS011;25393;46.108;3.390;2022-08-19T11:37:42;3.28;;;3.17;;
36501;SDS011;25393;46.108;3.390;2022-08-19T11:40:08;3.40;;;3.20;;
36501;SDS011;25393;46.108;3.390;2022-08-19T11:42:36;3.58;;;3.38;;
36501;SDS011;25393;46.108;3.390;2022-08-19T11:45:25;3.10;;;2.83;;
36501;SDS011;25393;46.108;3.390;2022-08-19T11:47:54;3.67;;;3.38;;
36501;SDS011;25393;46.108;3.390;2022-08-19T11:50:21;6.95;;;3.53;;
36501;SDS011;25393;46.108;3.390;2022-08-19T11:52:49;3.38;;;3.08;;
36501;SDS011;25393;46.108;3.390;2022-08-19T11:55:20;3.42;;;3.22;;
36501;SDS011;25393;46.108;3.390;2022-08-19T11:57:47;3.40;;;3.20;;
36501;SDS011;25393;46.108;3.390;2022-08-19T12:00:14;4.32;;;3.92;;
36501;SDS011;25393;46.108;3.390;2022-08-19T12:02:44;3.30;;;3.10;;
36501;SDS011;25393;46.108;3.390;2022-08-19T12:05:11;3.17;;;3.05;;
36501;SDS011;25393;46.108;3.390;2022-08-19T12:07:41;3.70;;;3.40;;
36501;SDS011;25393;46.108;3.390;2022-08-19T12:10:08;3.50;;;3.40;;
36501;SDS011;25393;46.108;3.390;2022-08-19T12:12:36;3.28;;;3.08;;
36501;SDS011;25393;46.108;3.390;2022-08-19T12:15:09;3.20;;;3.10;;
36501;SDS011;25393;46.108;3.390;2022-08-19T12:17:37;3.65;;;2.90;;
36501;SDS011;25393;46.108;3.390;2022-08-19T12:20:04;2.85;;;2.75;;
36501;SDS011;25393;46.108;3.390;2022-08-19T12:22:46;2.83;;;2.72;;
36501;SDS011;25393;46.108;3.390;2022-08-19T12:25:16;2.95;;;2.70;;
36501;SDS011;25393;46.108;3.390;2022-08-19T12:27:48;3.30;;;3.00;;
36501;SDS011;25393;46.108;3.390;2022-08-19T12:30:23;5.22;;;3.50;;
36501;SDS011;25393;46.108;3.390;2022-08-19T12:32:50;4.53;;;4.15;;
36501;SDS011;25393;46.108;3.390;2022-08-19T12:35:17;4.72;;;4.20;;
36501;SDS011;25393;46.108;3.390;2022-08-19T12:37:47;3.90;;;3.60;;
36501;SDS011;25393;46.108;3.390;2022-08-19T12:40:23;4.45;;;4.05;;
36501;SDS011;25393;46.108;3.390;2022-08-19T12:42:52;6.03;;;4.40;;
36501;SDS011;25393;46.108;3.390;2022-08-19T12:45:19;7.43;;;4.45;;
36501;SDS011;25393;46.108;3.390;2022-08-19T12:47:46;5.25;;;4.85;;
36501;SDS011;25393;46.108;3.390;2022-08-19T12:50:14;5.03;;;4.55;;
36501;SDS011;25393;46.108;3.390;2022-08-19T12:52:41;5.38;;;4.90;;
36501;SDS011;25393;46.108;3.390;2022-08-19T12:55:10;5.90;;;5.13;;
36501;SDS011;25393;46.108;3.390;2022-08-19T12:57:40;7.05;;;6.20;;
36501;SDS011;25393;46.108;3.390;2022-08-19T13:00:11;9.15;;;6.13;;
36501;SDS011;25393;46.108;3.390;2022-08-19T13:02:41;6.80;;;6.20;;
36501;SDS011;25393;46.108;3.390;2022-08-19T13:05:11;9.98;;;6.30;;
36501;SDS011;25393;46.108;3.390;2022-08-19T13:07:44;6.47;;;5.82;;
36501;SDS011;25393;46.108;3.390;2022-08-19T13:10:12;8.63;;;6.50;;
36501;SDS011;25393;46.108;3.390;2022-08-19T13:12:42;10.40;;;7.18;;
36501;SDS011;25393;46.108;3.390;2022-08-19T13:15:09;6.97;;;5.97;;
36501;SDS011;25393;46.108;3.390;2022-08-19T13:17:37;7.53;;;6.15;;
36501;SDS011;25393;46.108;3.390;2022-08-19T13:20:05;7.63;;;6.80;;
36501;SDS011;25393;46.108;3.390;2022-08-19T13:22:35;6.22;;;5.63;;
36501;SDS011;25393;46.108;3.390;2022-08-19T13:25:03;10.52;;;6.30;;
36501;SDS011;25393;46.108;3.390;2022-08-19T13:27:31;9.90;;;5.97;;
36501;SDS011;25393;46.108;3.390;2022-08-19T13:29:58;6.38;;;5.68;;
36501;SDS011;25393;46.108;3.390;2022-08-19T13:32:44;7.90;;;5.80;;
36501;SDS011;25393;46.108;3.390;2022-08-19T13:35:29;10.15;;;6.45;;
36501;SDS011;25393;46.108;3.390;2022-08-19T13:37:56;7.68;;;6.05;;
36501;SDS011;25393;46.108;3.390;2022-08-19T13:40:23;7.07;;;5.82;;
36501;SDS011;25393;46.108;3.390;2022-08-19T13:42:53;7.63;;;5.50;;
36501;SDS011;25393;46.108;3.390;2022-08-19T13:45:22;7.90;;;5.70;;
36501;SDS011;25393;46.108;3.390;2022-08-19T13:47:51;6.80;;;6.18;;
36501;SDS011;25393;46.108;3.390;2022-08-19T13:50:29;6.15;;;5.43;;
36501;SDS011;25393;46.108;3.390;2022-08-19T13:52:58;5.85;;;5.35;;
36501;SDS011;25393;46.108;3.390;2022-08-19T13:55:25;9.20;;;5.95;;
36501;SDS011;25393;46.108;3.390;2022-08-19T13:57:53;6.00;;;5.50;;
36501;SDS011;25393;46.108;3.390;2022-08-19T14:00:23;6.22;;;5.53;;
36501;SDS011;25393;46.108;3.390;2022-08-19T14:02:54;8.73;;;4.85;;
36501;SDS011;25393;46.108;3.390;2022-08-19T14:05:22;6.70;;;5.18;;
36501;SDS011;25393;46.108;3.390;2022-08-19T14:07:51;5.97;;;4.72;;
36501;SDS011;25393;46.108;3.390;2022-08-19T14:10:18;5.10;;;4.60;;
36501;SDS011;25393;46.108;3.390;2022-08-19T14:12:46;6.35;;;4.50;;
36501;SDS011;25393;46.108;3.390;2022-08-19T14:15:18;10.40;;;4.55;;
36501;SDS011;25393;46.108;3.390;2022-08-19T14:17:45;3.92;;;3.67;;
36501;SDS011;25393;46.108;3.390;2022-08-19T14:20:15;7.03;;;4.20;;
36501;SDS011;25393;46.108;3.390;2022-08-19T14:22:44;4.50;;;4.10;;
36501;SDS011;25393;46.108;3.390;2022-08-19T14:25:17;4.25;;;3.80;;
36501;SDS011;25393;46.108;3.390;2022-08-19T14:27:46;5.68;;;3.70;;
36501;SDS011;25393;46.108;3.390;2022-08-19T14:30:19;3.92;;;3.63;;
36501;SDS011;25393;46.108;3.390;2022-08-19T14:32:48;4.18;;;3.88;;
36501;SDS011;25393;46.108;3.390;2022-08-19T14:35:14;4.22;;;3.90;;
36501;SDS011;25393;46.108;3.390;2022-08-19T14:37:42;6.10;;;3.85;;
36501;SDS011;25393;46.108;3.390;2022-08-19T14:40:12;4.30;;;3.88;;
36501;SDS011;25393;46.108;3.390;2022-08-19T14:42:41;4.55;;;4.15;;
36501;SDS011;25393;46.108;3.390;2022-08-19T14:45:08;12.52;;;4.07;;
36501;SDS011;25393;46.108;3.390;2022-08-19T14:47:37;4.03;;;3.67;;
36501;SDS011;25393;46.108;3.390;2022-08-19T14:50:06;5.07;;;4.15;;
36501;SDS011;25393;46.108;3.390;2022-08-19T14:52:43;6.32;;;4.47;;
36501;SDS011;25393;46.108;3.390;2022-08-19T14:55:10;6.93;;;6.38;;
36501;SDS011;25393;46.108;3.390;2022-08-19T14:57:36;5.68;;;4.32;;
36501;SDS011;25393;46.108;3.390;2022-08-19T15:00:03;6.60;;;4.28;;
36501;SDS011;25393;46.108;3.390;2022-08-19T15:02:30;5.45;;;4.43;;
36501;SDS011;25393;46.108;3.390;2022-08-19T15:05:00;5.10;;;4.50;;
36501;SDS011;25393;46.108;3.390;2022-08-19T15:07:26;8.00;;;4.50;;
36501;SDS011;25393;46.108;3.390;2022-08-19T15:09:54;4.70;;;4.30;;